Time;durP1;ratioP1;P1;durP2;ratioP2;P2;SDS_P1;SDS_P2;PMS_P1;PMS_P2;Temp;Humidity;BMP_temperature;BMP_pressure;BME280_temperature;BME280_humidity;BME280_pressure;Samples;Min_cycle;Max_cycle;Signal;HPM_P1;HPM_P2
2022/10/20 00:01:01;;;;;;;12.63;5.68;;;7.40;99.90;;;;;;5040286;28;20056;-90
2022/10/20 00:03:28;;;;;;;11.27;5.72;;;7.90;99.90;;;;;;5073285;28;20039;-90
2022/10/20 00:05:54;;;;;;;14.00;5.88;;;8.00;99.90;;;;;;5056489;28;20075;-90
2022/10/20 00:08:20;;;;;;;11.85;5.38;;;7.30;99.90;;;;;;5089909;28;20051;-91
2022/10/20 00:10:55;;;;;;;9.60;5.53;;;8.30;99.90;;;;;;5056733;28;20035;-89
2022/10/20 00:13:22;;;;;;;8.68;5.53;;;8.40;99.90;;;;;;5056889;28;20079;-91
2022/10/20 00:15:53;;;;;;;9.23;5.18;;;8.30;99.90;;;;;;5056568;28;20039;-91
2022/10/20 00:18:21;;;;;;;10.75;5.70;;;8.40;99.90;;;;;;5072929;28;20092;-91
2022/10/20 00:20:47;;;;;;;13.82;5.97;;;7.20;99.90;;;;;;5057508;28;20043;-91
2022/10/20 00:23:13;;;;;;;11.57;5.35;;;7.20;99.90;;;;;;5056623;28;20097;-89
2022/10/20 00:25:39;;;;;;;9.85;5.85;;;8.10;99.90;;;;;;5073796;28;20093;-91
2022/10/20 00:28:05;;;;;;;10.45;6.20;;;8.00;99.90;;;;;;5073231;28;20035;-91
2022/10/20 00:30:30;;;;;;;10.75;5.85;;;8.30;99.90;;;;;;5058278;28;20161;-91
2022/10/20 00:32:56;;;;;;;12.25;5.93;;;7.00;99.90;;;;;;5040138;28;20100;-92
2022/10/20 00:35:22;;;;;;;8.05;5.57;;;7.10;99.90;;;;;;5056823;28;20048;-92
2022/10/20 00:37:47;;;;;;;10.05;5.45;;;8.20;99.90;;;;;;5040645;28;20039;-91
2022/10/20 00:40:13;;;;;;;11.38;5.15;;;8.10;99.90;;;;;;5039540;28;20044;-90
2022/10/20 00:42:44;;;;;;;9.48;5.57;;;7.00;99.90;;;;;;5056202;28;20048;-91
2022/10/20 00:45:16;;;;;;;10.75;5.07;;;7.00;99.90;;;;;;5053429;28;20083;-90
2022/10/20 00:48:05;;;;;;;10.55;4.63;;;7.60;99.90;;;;;;5052645;28;20098;-90
2022/10/20 00:50:38;;;;;;;9.93;5.10;;;7.00;99.90;;;;;;5052258;28;20048;-90
2022/10/20 00:53:04;;;;;;;;;;;8.00;99.90;;;;;;5052757;28;20054;-90
2022/10/20 00:55:32;;;;;;;12.45;4.50;;;7.40;99.90;;;;;;5051831;28;20291;-90
2022/10/20 00:57:59;;;;;;;9.55;5.07;;;7.60;99.90;;;;;;5051020;28;20039;-90
2022/10/20 01:00:26;;;;;;;8.85;4.90;;;7.90;99.90;;;;;;5052628;28;20036;-90
2022/10/20 01:02:55;;;;;;;9.60;5.15;;;7.90;99.90;;;;;;5051767;28;20467;-90
2022/10/20 01:05:21;;;;;;;12.15;5.68;;;7.30;99.90;;;;;;5052073;28;20707;-90
2022/10/20 01:07:47;;;;;;;13.27;5.63;;;7.10;99.90;;;;;;5051958;28;20119;-90
2022/10/20 01:10:13;;;;;;;9.75;5.07;;;7.40;99.90;;;;;;5019133;28;20470;-90
2022/10/20 01:13:10;;;;;;;13.07;5.15;;;6.80;99.90;;;;;;5035546;28;20345;-90
2022/10/20 01:16:03;;;;;;;11.23;5.28;;;6.80;99.90;;;;;;5067741;28;20134;-89
2022/10/20 01:19:05;;;;;;;15.95;6.25;;;6.80;99.90;;;;;;5051753;28;20044;-90
2022/10/20 01:21:41;;;;;;;11.90;4.93;;;6.80;99.90;;;;;;5052104;28;20079;-90
2022/10/20 01:24:25;;;;;;;11.35;5.05;;;6.80;99.90;;;;;;5051966;28;20375;-90
2022/10/20 01:27:22;;;;;;;11.05;4.50;;;6.80;99.90;;;;;;5051847;28;20044;-90
2022/10/20 01:30:15;;;;;;;11.55;4.60;;;6.80;99.90;;;;;;5072505;28;20048;-89
2022/10/20 01:32:53;;;;;;;13.20;5.47;;;6.80;99.90;;;;;;5055569;28;20372;-90
2022/10/20 01:35:21;;;;;;;9.80;5.53;;;6.80;99.90;;;;;;5055799;28;20054;-90
2022/10/20 01:37:54;;;;;;;11.93;4.70;;;6.80;99.90;;;;;;5072036;28;20172;-90
2022/10/20 01:40:27;;;;;;;9.10;4.55;;;6.80;99.90;;;;;;5055440;28;20486;-91
2022/10/20 01:42:55;;;;;;;;;;;6.80;99.90;;;;;;5056937;28;20479;-91
2022/10/20 01:45:24;;;;;;;6.20;4.85;;;7.80;99.90;;;;;;5074282;28;19928;-90
2022/10/20 01:47:52;;;;;;;10.35;5.82;;;7.30;99.90;;;;;;5076879;28;20147;-90
2022/10/20 01:50:19;;;;;;;13.32;4.80;;;6.80;99.90;;;;;;5075812;28;20039;-90
2022/10/20 01:52:45;;;;;;;9.80;4.43;;;6.80;99.90;;;;;;5076109;28;20579;-88
2022/10/20 01:55:16;;;;;;;7.88;4.95;;;6.80;99.90;;;;;;5087121;28;20043;-88
2022/10/20 01:57:48;;;;;;;8.68;4.82;;;6.80;99.90;;;;;;5090169;28;20075;-89
2022/10/20 02:00:16;;;;;;;12.15;5.32;;;6.70;99.90;;;;;;5090190;28;20054;-88
2022/10/20 02:03:23;;;;;;;9.25;4.53;;;7.40;99.90;;;;;;5090336;28;20059;-89
2022/10/20 02:06:06;;;;;;;10.18;4.63;;;6.70;99.90;;;;;;5086749;28;20047;-89
2022/10/20 02:08:32;;;;;;;;;;;7.60;99.90;;;;;;5082341;28;20051;-90
2022/10/20 02:11:01;;;;;;;13.10;5.20;;;7.20;99.90;;;;;;5076659;28;20375;-89
2022/10/20 02:13:29;;;;;;;7.65;4.20;;;7.80;99.90;;;;;;5075916;28;20046;-90
2022/10/20 02:15:57;;;;;;;10.15;4.35;;;6.60;99.90;;;;;;5060336;28;20049;-90
2022/10/20 02:18:33;;;;;;;17.63;4.68;;;6.60;99.90;;;;;;5076601;28;20075;-90
2022/10/20 02:21:01;;;;;;;10.07;5.25;;;7.60;99.90;;;;;;5075944;28;20406;-91
2022/10/20 02:23:30;;;;;;;11.57;5.20;;;7.70;99.90;;;;;;5076286;28;20061;-89
2022/10/20 02:25:59;;;;;;;7.72;4.80;;;7.40;99.90;;;;;;5059180;28;20042;-90
2022/10/20 02:28:27;;;;;;;16.92;5.28;;;6.60;99.90;;;;;;5074352;28;20070;-90
2022/10/20 02:30:54;;;;;;;10.63;4.68;;;7.10;99.90;;;;;;5059457;28;20074;-90
2022/10/20 02:33:21;;;;;;;7.82;4.50;;;6.60;99.90;;;;;;5058534;28;20044;-89
2022/10/20 02:35:54;;;;;;;8.70;4.28;;;7.40;99.90;;;;;;5074801;28;20043;-89
2022/10/20 02:38:19;;;;;;;8.75;3.33;;;6.50;99.90;;;;;;5074956;28;20124;-89
2022/10/20 02:40:45;;;;;;;9.32;4.53;;;6.50;99.90;;;;;;5056308;28;20115;-90
2022/10/20 02:43:11;;;;;;;9.15;5.28;;;7.10;99.90;;;;;;5075069;28;20043;-90
2022/10/20 02:45:37;;;;;;;12.25;5.20;;;7.20;99.90;;;;;;5056670;28;20051;-89
2022/10/20 02:48:03;;;;;;;8.40;4.75;;;7.20;99.90;;;;;;5074605;28;20122;-89
2022/10/20 02:50:30;;;;;;;9.20;4.38;;;6.50;99.90;;;;;;5074199;28;20561;-89
2022/10/20 02:52:56;;;;;;;9.98;5.45;;;6.50;99.90;;;;;;5058294;28;20055;-89
2022/10/20 02:55:21;;;;;;;8.05;5.05;;;6.60;99.90;;;;;;5041598;28;20036;-89
2022/10/20 02:57:47;;;;;;;10.40;4.65;;;7.30;99.90;;;;;;5040773;28;20439;-89
2022/10/20 03:00:14;;;;;;;10.55;5.20;;;6.50;99.90;;;;;;5057239;28;20452;-89
2022/10/20 03:02:39;;;;;;;9.55;4.97;;;6.50;99.90;;;;;;5056946;28;20588;-91
2022/10/20 03:05:05;;;;;;;14.68;5.75;;;6.50;99.90;;;;;;5041432;28;20048;-88
2022/10/20 03:07:31;;;;;;;6.80;4.97;;;6.50;99.90;;;;;;5057048;28;20100;-89
2022/10/20 03:09:57;;;;;;;7.50;5.07;;;7.30;99.90;;;;;;5058264;28;20043;-89
2022/10/20 03:12:22;;;;;;;6.78;4.63;;;7.30;99.90;;;;;;5057530;28;20079;-90
2022/10/20 03:14:48;;;;;;;12.55;5.47;;;7.50;99.90;;;;;;5056695;28;20043;-89
2022/10/20 03:17:14;;;;;;;9.27;5.10;;;7.00;99.90;;;;;;5057960;28;20055;-90
2022/10/20 03:19:40;;;;;;;14.15;5.95;;;6.50;99.90;;;;;;5056435;28;20044;-91
2022/10/20 03:22:06;;;;;;;10.95;5.75;;;7.00;99.90;;;;;;5058105;28;20032;-90
2022/10/20 03:24:31;;;;;;;12.32;5.78;;;7.30;99.90;;;;;;5056808;28;20079;-89
2022/10/20 03:26:57;;;;;;;10.80;6.22;;;7.70;99.90;;;;;;5058167;28;20046;-89
2022/10/20 03:29:23;;;;;;;12.68;6.07;;;7.10;99.90;;;;;;5064120;28;20046;-90
2022/10/20 03:31:49;;;;;;;9.57;6.53;;;6.50;99.90;;;;;;5080997;27;20058;-90
2022/10/20 03:34:14;;;;;;;9.45;5.78;;;6.60;99.90;;;;;;5065095;27;20031;-89
2022/10/20 03:36:43;;;;;;;12.88;5.85;;;7.70;99.90;;;;;;5082065;27;20038;-91
2022/10/20 03:39:09;;;;;;;8.02;5.65;;;7.70;99.90;;;;;;5082123;27;20031;-91
2022/10/20 03:41:35;;;;;;;10.50;5.97;;;7.40;99.90;;;;;;5097855;27;20030;-90
2022/10/20 03:44:00;;;;;;;10.65;7.13;;;7.30;99.90;;;;;;5065441;27;20047;-90
2022/10/20 03:46:26;;;;;;;10.60;6.15;;;6.60;99.90;;;;;;5064417;27;20046;-92
2022/10/20 03:48:55;;;;;;;10.88;6.30;;;6.90;99.90;;;;;;5096906;28;20031;-91
2022/10/20 03:51:21;;;;;;;11.50;5.95;;;6.70;99.90;;;;;;5049118;28;20035;-90
2022/10/20 03:53:46;;;;;;;17.25;6.38;;;6.90;99.90;;;;;;5042991;28;20047;-89
2022/10/20 03:56:17;;;;;;;10.93;6.38;;;7.60;99.90;;;;;;5059785;28;20078;-90
2022/10/20 03:58:42;;;;;;;11.02;6.22;;;7.50;99.90;;;;;;5075055;28;20043;-89
2022/10/20 04:01:16;;;;;;;19.73;7.13;;;7.00;99.90;;;;;;5060260;28;20130;-88
2022/10/20 04:03:43;;;;;;;9.77;6.75;;;7.50;99.90;;;;;;5076085;28;20134;-91
2022/10/20 04:06:11;;;;;;;10.88;7.32;;;7.60;99.90;;;;;;5059526;28;20040;-91
2022/10/20 04:08:36;;;;;;;13.20;7.13;;;6.70;99.90;;;;;;5075605;28;20499;-90
2022/10/20 04:11:02;;;;;;;12.48;6.70;;;7.20;99.90;;;;;;5058643;28;20085;-90
2022/10/20 04:13:28;;;;;;;12.50;7.18;;;6.70;99.90;;;;;;5060051;28;20513;-91
2022/10/20 04:15:53;;;;;;;10.88;6.55;;;7.60;99.90;;;;;;5042309;28;20505;-91
2022/10/20 04:18:19;;;;;;;11.52;7.25;;;7.90;99.90;;;;;;5059235;28;20104;-88
2022/10/20 04:20:46;;;;;;;11.48;7.30;;;7.40;99.90;;;;;;5075266;28;20050;-90
2022/10/20 04:23:12;;;;;;;10.48;6.25;;;7.30;99.90;;;;;;5076685;28;20062;-89
2022/10/20 04:25:47;;;;;;;12.55;7.10;;;7.70;99.90;;;;;;5059905;28;20047;-90
2022/10/20 04:28:14;;;;;;;9.82;7.18;;;6.80;99.90;;;;;;5075134;28;20051;-90
2022/10/20 04:30:40;;;;;;;16.65;7.57;;;7.50;99.90;;;;;;5075795;28;20040;-89
2022/10/20 04:33:06;;;;;;;15.27;7.63;;;7.30;99.90;;;;;;5042170;28;20062;-92
2022/10/20 04:35:32;;;;;;;11.90;6.95;;;7.20;99.90;;;;;;5078902;28;20107;-92
2022/10/20 04:37:57;;;;;;;12.60;7.57;;;6.50;99.90;;;;;;5078196;28;20103;-91
2022/10/20 04:40:24;;;;;;;9.88;7.38;;;6.50;99.90;;;;;;5062486;28;20093;-92
2022/10/20 04:42:49;;;;;;;14.07;7.05;;;7.40;99.90;;;;;;5078999;28;20379;-93
2022/10/20 04:45:15;;;;;;;10.57;7.38;;;6.50;99.90;;;;;;5044712;28;20051;-93
2022/10/20 04:47:41;;;;;;;12.63;7.47;;;7.10;99.90;;;;;;5041941;28;20495;-92
2022/10/20 04:50:07;;;;;;;11.27;8.15;;;6.50;99.90;;;;;;5022021;28;20046;-91
2022/10/20 04:52:36;;;;;;;15.27;9.02;;;6.50;99.90;;;;;;5058809;28;20107;-96
2022/10/20 04:55:04;;;;;;;10.90;8.27;;;6.90;99.90;;;;;;5036950;28;20082;-92
2022/10/20 04:57:30;;;;;;;11.20;8.02;;;6.50;99.90;;;;;;5036016;28;20117;-92
2022/10/20 04:59:55;;;;;;;13.63;7.65;;;7.50;99.90;;;;;;5019157;28;20047;-91
2022/10/20 05:02:21;;;;;;;12.55;8.63;;;7.50;99.90;;;;;;5034924;28;20043;-93
2022/10/20 05:04:47;;;;;;;15.90;9.32;;;6.80;99.90;;;;;;5036299;28;20093;-92
2022/10/20 05:07:12;;;;;;;12.93;8.68;;;6.80;99.90;;;;;;5019157;28;20054;-92
2022/10/20 05:09:38;;;;;;;15.02;8.50;;;6.50;99.90;;;;;;5036199;28;20221;-93
2022/10/20 05:12:04;;;;;;;13.50;8.52;;;6.50;99.90;;;;;;5036759;28;20192;-91
2022/10/20 05:14:29;;;;;;;16.75;8.75;;;6.80;99.90;;;;;;5061060;28;20086;-92
2022/10/20 05:16:55;;;;;;;14.25;8.77;;;6.50;99.90;;;;;;5027741;28;20573;-91
2022/10/20 05:19:21;;;;;;;12.68;7.65;;;7.20;99.90;;;;;;5027768;28;20032;-92
2022/10/20 05:21:47;;;;;;;13.20;9.23;;;6.50;99.90;;;;;;5030596;28;20131;-92
2022/10/20 05:24:15;;;;;;;13.13;8.73;;;6.50;99.90;;;;;;5062423;28;20070;-92
2022/10/20 05:26:41;;;;;;;13.30;9.02;;;6.50;99.90;;;;;;5038370;28;20050;-91
2022/10/20 05:29:09;;;;;;;10.98;8.63;;;6.50;99.90;;;;;;5053545;28;20040;-94
2022/10/20 05:31:40;;;;;;;16.05;9.18;;;7.40;99.90;;;;;;5053306;28;20117;-92
2022/10/20 05:34:06;;;;;;;12.80;9.00;;;6.40;99.90;;;;;;5051670;28;20042;-91
2022/10/20 05:36:32;;;;;;;12.93;8.45;;;7.30;99.90;;;;;;5052297;28;20571;-94
2022/10/20 05:38:58;;;;;;;12.95;8.95;;;7.50;99.90;;;;;;5054105;28;20044;-94
2022/10/20 05:41:30;;;;;;;14.98;9.48;;;6.40;99.90;;;;;;5038428;28;20154;-95
2022/10/20 05:43:58;;;;;;;18.95;8.80;;;6.50;99.90;;;;;;5054308;28;20051;-93
2022/10/20 05:46:29;;;;;;;15.70;9.60;;;6.40;99.90;;;;;;5059066;28;20055;-95
2022/10/20 05:48:57;;;;;;;11.70;9.25;;;6.40;99.90;;;;;;5073357;28;20039;-95
2022/10/20 05:51:25;;;;;;;13.93;9.40;;;7.50;99.90;;;;;;5074759;28;20134;-93
2022/10/20 05:53:53;;;;;;;26.60;10.07;;;6.40;99.90;;;;;;5058019;28;20122;-92
2022/10/20 05:56:20;;;;;;;13.15;9.60;;;7.10;99.90;;;;;;5067039;28;20036;-94
2022/10/20 05:58:46;;;;;;;12.68;9.43;;;7.60;99.90;;;;;;5075202;28;20482;-91
2022/10/20 06:01:19;;;;;;;29.90;12.00;;;5.40;99.90;;;;;;5066419;28;20077;-93
2022/10/20 06:03:56;;;;;;;31.00;11.90;;;6.40;99.90;;;;;;5086333;28;20088;-95
2022/10/20 06:06:24;;;;;;;16.45;10.02;;;7.40;99.90;;;;;;5083245;28;20032;-94
2022/10/20 06:08:50;;;;;;;11.32;9.35;;;6.80;99.90;;;;;;5084528;28;20082;-94
2022/10/20 06:11:17;;;;;;;13.75;9.68;;;6.50;99.90;;;;;;5068691;28;20036;-95
2022/10/20 06:13:43;;;;;;;18.10;10.88;;;7.30;99.90;;;;;;5080318;28;20219;-92
2022/10/20 06:16:19;;;;;;;10.98;9.10;;;7.70;99.90;;;;;;5062921;28;20039;-91
2022/10/20 06:18:44;;;;;;;14.32;9.88;;;6.60;99.90;;;;;;5080732;28;20093;-93
2022/10/20 06:21:13;;;;;;;13.80;10.32;;;7.80;99.90;;;;;;5064924;28;20066;-92
2022/10/20 06:23:38;;;;;;;15.35;9.63;;;7.00;99.90;;;;;;5079935;28;20050;-91
2022/10/20 06:26:18;;;;;;;12.82;9.55;;;6.40;99.90;;;;;;5062725;28;20107;-92
2022/10/20 06:28:45;;;;;;;16.98;10.10;;;7.40;99.90;;;;;;5077343;28;20035;-93
2022/10/20 06:31:13;;;;;;;12.82;9.07;;;6.40;99.90;;;;;;5078096;28;20062;-92
2022/10/20 06:33:39;;;;;;;11.95;9.23;;;7.50;99.90;;;;;;5077055;28;20051;-94
2022/10/20 06:36:05;;;;;;;12.82;9.90;;;7.80;99.90;;;;;;5077576;28;20054;-94
2022/10/20 06:38:31;;;;;;;16.35;10.13;;;6.40;99.90;;;;;;5078434;28;20050;-94
2022/10/20 06:41:01;;;;;;;14.70;10.32;;;6.40;99.90;;;;;;5044378;28;20107;-95
2022/10/20 06:43:26;;;;;;;17.30;10.15;;;6.40;99.90;;;;;;5078042;28;20139;-94
2022/10/20 06:46:04;;;;;;;16.20;10.63;;;6.50;99.90;;;;;;5060010;28;20098;-93
2022/10/20 06:48:31;;;;;;;14.25;10.40;;;6.50;99.90;;;;;;5076373;28;20058;-95
2022/10/20 06:51:10;;;;;;;15.52;10.57;;;6.50;99.90;;;;;;5077149;28;20047;-94
2022/10/20 06:53:37;;;;;;;15.13;10.98;;;6.50;99.90;;;;;;5075650;28;20043;-94
2022/10/20 06:56:05;;;;;;;17.00;10.15;;;6.60;99.90;;;;;;5076070;28;20055;-95
2022/10/20 06:58:33;;;;;;;18.27;9.90;;;6.60;99.90;;;;;;5076704;28;20078;-95
2022/10/20 07:01:03;;;;;;;21.13;10.55;;;7.40;99.90;;;;;;5091648;28;20519;-92
2022/10/20 07:03:30;;;;;;;17.67;10.10;;;7.90;99.90;;;;;;5075001;28;20113;-91
2022/10/20 07:05:56;;;;;;;15.25;10.23;;;6.70;99.90;;;;;;5059432;28;20127;-94
2022/10/20 07:08:23;;;;;;;19.42;10.38;;;6.70;99.90;;;;;;5076397;28;20193;-91
2022/10/20 07:10:59;;;;;;;17.92;10.75;;;6.70;99.90;;;;;;5057949;28;20044;-95
2022/10/20 07:13:27;;;;;;;15.35;10.00;;;6.80;99.90;;;;;;5075424;28;20108;-92
2022/10/20 07:15:54;;;;;;;16.02;9.40;;;7.60;99.90;;;;;;5057358;28;20047;-92
2022/10/20 07:18:20;;;;;;;16.48;11.07;;;6.80;99.90;;;;;;5074994;28;20118;-95
2022/10/20 07:20:46;;;;;;;15.48;9.73;;;7.90;99.90;;;;;;5075318;28;20050;-89
2022/10/20 07:23:12;;;;;;;14.35;10.05;;;8.20;99.90;;;;;;5040766;28;20044;-89
2022/10/20 07:25:38;;;;;;;19.10;10.27;;;8.30;99.90;;;;;;5039874;28;20039;-88
2022/10/20 07:28:03;;;;;;;16.35;10.90;;;7.10;99.90;;;;;;5074462;28;20101;-92
2022/10/20 07:30:29;;;;;;;14.90;9.45;;;7.10;99.90;;;;;;5060918;28;20039;-93
2022/10/20 07:32:55;;;;;;;18.15;10.32;;;8.40;99.90;;;;;;5043167;28;20032;-96
2022/10/20 07:35:24;;;;;;;15.45;10.38;;;7.30;99.90;;;;;;5060345;28;20075;-92
2022/10/20 07:37:49;;;;;;;19.33;9.75;;;7.30;99.90;;;;;;5041513;28;20044;-94
2022/10/20 07:40:15;;;;;;;13.82;9.00;;;7.90;99.90;;;;;;5045249;28;20036;-95
2022/10/20 07:42:41;;;;;;;16.05;10.00;;;7.50;99.90;;;;;;5062413;28;20035;-94
2022/10/20 07:45:07;;;;;;;12.07;9.30;;;7.50;99.90;;;;;;5049015;28;20138;-95
2022/10/20 07:47:33;;;;;;;19.42;10.05;;;7.50;99.90;;;;;;5064542;28;20063;-95
2022/10/20 07:49:59;;;;;;;18.48;9.38;;;8.70;99.90;;;;;;5047520;28;20047;-96
2022/10/20 07:52:24;;;;;;;16.05;9.98;;;8.80;99.90;;;;;;5057996;28;20035;-96
2022/10/20 07:54:50;;;;;;;12.77;9.63;;;7.60;99.90;;;;;;5078691;28;20557;-89
2022/10/20 07:57:16;;;;;;;18.52;10.13;;;9.00;99.90;;;;;;5059842;28;20050;-89
2022/10/20 07:59:42;;;;;;;13.25;9.20;;;7.70;99.90;;;;;;5066929;28;20051;-93
2022/10/20 08:02:10;;;;;;;12.90;10.00;;;7.70;99.90;;;;;;5044180;28;20044;-86
2022/10/20 08:04:35;;;;;;;16.58;9.43;;;8.90;99.90;;;;;;5077419;28;20134;-87
2022/10/20 08:07:01;;;;;;;12.90;9.43;;;8.40;99.90;;;;;;5060996;28;20136;-86
2022/10/20 08:09:27;;;;;;;15.77;9.43;;;7.80;99.90;;;;;;5057445;28;20047;-87
2022/10/20 08:11:53;;;;;;;15.68;9.32;;;8.90;99.90;;;;;;5073677;28;20054;-87
2022/10/20 08:14:18;;;;;;;10.68;9.18;;;7.90;99.90;;;;;;5090560;28;20454;-87
2022/10/20 08:16:44;;;;;;;11.48;9.23;;;7.60;99.90;;;;;;5073069;28;20089;-87
2022/10/20 08:19:10;;;;;;;11.45;8.77;;;8.00;99.90;;;;;;5089041;28;20051;-87
2022/10/20 08:21:35;;;;;;;16.33;9.32;;;8.00;99.90;;;;;;5072392;28;20035;-86
2022/10/20 08:24:02;;;;;;;14.45;8.35;;;9.10;99.90;;;;;;5089423;28;20086;-88
2022/10/20 08:26:28;;;;;;;18.27;9.07;;;8.60;99.90;;;;;;5055705;28;20062;-90
2022/10/20 08:28:54;;;;;;;20.80;9.15;;;8.50;99.90;;;;;;5072762;28;20044;-89
2022/10/20 08:31:21;;;;;;;13.63;9.15;;;8.70;99.90;;;;;;5057189;28;20047;-88
2022/10/20 08:33:46;;;;;;;13.40;8.95;;;9.10;99.90;;;;;;5092075;28;20079;-89
2022/10/20 08:36:14;;;;;;;11.57;8.85;;;8.30;99.90;;;;;;5076798;28;20043;-89
2022/10/20 08:38:40;;;;;;;15.07;8.85;;;8.40;99.90;;;;;;5081085;28;20036;-89
2022/10/20 08:41:19;;;;;;;12.00;8.55;;;8.50;99.90;;;;;;5100158;28;20039;-87
2022/10/20 08:43:47;;;;;;;13.27;9.18;;;8.60;99.90;;;;;;5081180;28;20069;-93
2022/10/20 08:46:18;;;;;;;13.70;7.90;;;8.60;99.90;;;;;;5062066;28;20039;-92
2022/10/20 08:48:45;;;;;;;17.98;8.70;;;8.70;99.90;;;;;;5077095;28;20047;-91
2022/10/20 08:51:18;;;;;;;14.65;8.32;;;9.90;99.90;;;;;;5057194;28;20043;-92
2022/10/20 08:53:45;;;;;;;10.75;7.70;;;8.80;99.90;;;;;;5073724;28;20050;-91
2022/10/20 08:56:13;;;;;;;13.02;7.55;;;8.90;99.90;;;;;;5057019;28;20046;-91
2022/10/20 08:58:45;;;;;;;16.08;7.90;;;10.20;99.90;;;;;;5073318;28;20039;-92
2022/10/20 09:01:38;;;;;;;12.80;7.43;;;9.10;99.90;;;;;;5074000;28;20055;-93
2022/10/20 09:04:22;;;;;;;;;;;9.10;99.90;;;;;;5073645;28;20293;-92
2022/10/20 09:06:53;;;;;;;12.73;5.28;;;9.10;99.90;;;;;;5073126;28;19973;-93
2022/10/20 09:09:20;;;;;;;9.82;7.57;;;9.20;99.90;;;;;;5073924;28;20040;-93
2022/10/20 09:11:47;;;;;;;16.65;8.00;;;10.30;99.90;;;;;;5055957;28;20525;-93
2022/10/20 09:14:15;;;;;;;15.25;8.98;;;9.30;99.90;;;;;;5073014;28;20047;-91
2022/10/20 09:16:45;;;;;;;12.70;7.88;;;10.00;99.90;;;;;;5056710;28;20184;-94
2022/10/20 09:19:20;;;;;;;13.13;7.70;;;10.20;99.90;;;;;;5073514;28;22080;-93
2022/10/20 09:21:57;;;;;;;15.35;7.10;;;9.70;99.90;;;;;;5056893;28;20516;-94
2022/10/20 09:24:28;;;;;;;10.23;6.78;;;9.80;99.90;;;;;;5073013;28;20047;-91
2022/10/20 09:26:54;;;;;;;13.30;7.18;;;10.40;99.90;;;;;;5057547;28;20050;-93
2022/10/20 09:29:32;;;;;;;11.63;7.22;;;10.00;99.90;;;;;;5039650;28;20051;-92
2022/10/20 09:31:58;;;;;;;11.38;7.25;;;10.80;99.90;;;;;;5058985;28;20075;-92
2022/10/20 09:34:27;;;;;;;11.95;7.00;;;10.10;99.90;;;;;;5073430;28;20067;-94
2022/10/20 09:37:02;;;;;;;18.63;7.13;;;10.20;99.90;;;;;;5073625;28;20040;-93
2022/10/20 09:39:31;;;;;;;11.00;6.68;;;10.30;99.90;;;;;;5074577;28;20047;-92
2022/10/20 09:42:04;;;;;;;9.70;6.05;;;11.60;99.90;;;;;;5057412;28;20035;-93
2022/10/20 09:44:34;;;;;;;11.20;6.63;;;10.40;99.90;;;;;;5078537;28;20127;-92
2022/10/20 09:47:01;;;;;;;7.20;6.07;;;10.40;99.90;;;;;;5074335;28;20083;-93
2022/10/20 09:49:38;;;;;;;10.07;6.50;;;10.50;99.90;;;;;;5077063;28;20042;-86
2022/10/20 09:52:17;;;;;;;13.60;6.63;;;11.40;99.90;;;;;;5092239;28;20039;-85
2022/10/20 09:54:46;;;;;;;9.68;6.40;;;10.70;99.90;;;;;;5060970;28;20049;-86
2022/10/20 09:57:17;;;;;;;9.25;6.55;;;10.60;99.90;;;;;;5075719;28;20039;-85
2022/10/20 09:59:49;;;;;;;12.43;6.63;;;10.60;99.90;;;;;;5092273;28;20048;-89
2022/10/20 10:02:15;;;;;;;7.97;5.30;;;10.60;99.90;;;;;;5076035;28;20048;-91
2022/10/20 10:04:46;;;;;;;9.18;6.53;;;10.60;99.90;;;;;;5076070;28;20055;-87
2022/10/20 10:07:31;;;;;;;7.90;6.43;;;12.00;99.90;;;;;;5092161;28;20058;-86
2022/10/20 10:10:00;;;;;;;11.65;6.25;;;10.70;99.90;;;;;;5092917;28;20105;-89
2022/10/20 10:12:29;;;;;;;12.07;6.25;;;10.80;99.90;;;;;;5075087;28;20079;-88
2022/10/20 10:14:59;;;;;;;10.20;5.90;;;11.20;99.90;;;;;;5074779;28;20345;-87
2022/10/20 10:17:38;;;;;;;8.07;6.25;;;11.70;99.90;;;;;;5094893;28;20457;-91
2022/10/20 10:20:26;;;;;;;6.60;5.65;;;11.00;99.90;;;;;;5078694;28;20043;-92
2022/10/20 10:23:05;;;;;;;10.02;5.90;;;11.20;99.90;;;;;;5078747;28;20122;-92
2022/10/20 10:25:30;;;;;;;6.70;5.85;;;11.30;99.90;;;;;;5062112;28;20044;-90
2022/10/20 10:28:02;;;;;;;11.48;5.85;;;11.40;99.90;;;;;;5060616;28;20463;-88
2022/10/20 10:30:33;;;;;;;7.55;5.65;;;11.50;99.90;;;;;;5085273;28;20099;-96
2022/10/20 10:32:59;;;;;;;7.07;4.85;;;11.50;99.90;;;;;;5099831;27;20104;-94
2022/10/20 10:35:30;;;;;;;6.45;5.20;;;11.50;99.90;;;;;;5100088;27;20032;-90
2022/10/20 10:37:57;;;;;;;7.32;5.18;;;11.60;99.90;;;;;;5099645;27;20031;-93
2022/10/20 10:41:01;;;;;;;6.47;5.15;;;12.20;99.90;;;;;;5083251;28;20048;-94
2022/10/20 10:43:46;;;;;;;8.70;5.88;;;11.80;99.90;;;;;;4999776;28;20034;-94
2022/10/20 10:46:19;;;;;;;8.00;5.95;;;11.90;99.90;;;;;;5094460;28;20039;-96
2022/10/20 10:48:54;;;;;;;;;;;12.00;99.90;;;;;;5100587;27;20036;-94
2022/10/20 10:51:30;;;;;;;8.32;5.55;;;12.10;99.90;;;;;;5098923;27;19927;-95
2022/10/20 10:54:21;;;;;;;6.35;4.80;;;12.10;99.90;;;;;;5086951;28;20486;-93
2022/10/20 10:56:55;;;;;;;8.18;4.90;;;12.30;99.90;;;;;;5068730;28;20087;-93
2022/10/20 10:59:35;;;;;;;8.15;5.35;;;12.40;99.90;;;;;;5079464;28;20043;-94
2022/10/20 11:02:27;;;;;;;9.05;4.70;;;13.00;99.90;;;;;;5080124;28;20040;-96
2022/10/20 11:05:04;;;;;;;7.93;4.82;;;12.70;99.90;;;;;;5080778;28;20074;-91
2022/10/20 11:07:52;;;;;;;8.20;4.97;;;12.70;99.90;;;;;;5075315;28;20116;-91
2022/10/20 11:10:27;;;;;;;6.20;4.93;;;12.80;99.90;;;;;;5076081;28;20047;-89
2022/10/20 11:13:32;;;;;;;8.40;5.07;;;12.90;99.90;;;;;;5077697;28;20050;-92
2022/10/20 11:16:16;;;;;;;9.65;5.05;;;13.00;99.90;;;;;;5084302;28;20044;-90
2022/10/20 11:19:01;;;;;;;8.40;5.28;;;13.10;99.90;;;;;;5076940;28;20043;-91
2022/10/20 11:21:36;;;;;;;10.80;5.07;;;13.20;99.90;;;;;;5081102;28;20398;-90
2022/10/20 11:24:05;;;;;;;9.93;5.22;;;13.20;99.90;;;;;;5082405;28;20108;-90
2022/10/20 11:26:37;;;;;;;7.15;4.80;;;13.60;99.90;;;;;;5081108;28;20413;-89
2022/10/20 11:29:10;;;;;;;7.97;5.07;;;13.20;99.90;;;;;;5083591;28;20135;-90
2022/10/20 11:31:47;;;;;;;11.20;5.38;;;13.20;99.90;;;;;;5082570;28;20046;-91
2022/10/20 11:34:29;;;;;;;8.52;5.30;;;13.30;99.90;;;;;;5083735;28;20048;-90
2022/10/20 11:37:19;;;;;;;9.18;5.85;;;13.70;99.90;;;;;;5087376;28;20057;-89
2022/10/20 11:39:56;;;;;;;11.82;5.35;;;13.30;99.90;;;;;;5101384;28;20146;-89
2022/10/20 11:42:49;;;;;;;10.32;5.13;;;13.50;99.90;;;;;;5081107;28;20050;-90
2022/10/20 11:45:24;;;;;;;7.03;5.15;;;13.30;99.90;;;;;;5078407;28;20055;-87
2022/10/20 11:47:59;;;;;;;9.65;5.38;;;14.10;99.90;;;;;;5077542;28;20394;-88
2022/10/20 11:50:25;;;;;;;8.85;6.05;;;13.30;99.90;;;;;;5083791;28;20058;-87
2022/10/20 11:52:52;;;;;;;9.85;5.65;;;13.20;99.90;;;;;;5083222;28;20043;-88
2022/10/20 11:56:02;;;;;;;7.55;5.80;;;13.20;99.90;;;;;;5086497;28;20039;-87
2022/10/20 11:59:03;;;;;;;10.15;6.05;;;13.20;99.90;;;;;;5003909;28;20123;-89
2022/10/20 12:01:57;;;;;;;8.35;5.75;;;13.20;99.90;;;;;;5054145;28;20111;-83
2022/10/20 12:04:42;;;;;;;7.68;6.15;;;13.20;99.90;;;;;;5096878;28;20058;-81
2022/10/20 12:07:22;;;;;;;6.95;6.00;;;13.20;99.90;;;;;;5090525;28;20039;-82
2022/10/20 12:10:09;;;;;;;12.68;5.57;;;13.30;99.90;;;;;;5107725;28;20082;-82
2022/10/20 12:12:58;;;;;;;11.50;6.47;;;13.30;99.90;;;;;;5072169;28;20043;-83
2022/10/20 12:15:29;;;;;;;12.90;5.47;;;13.30;99.90;;;;;;5043251;28;20139;-82
2022/10/20 12:18:04;;;;;;;8.27;6.07;;;13.30;99.90;;;;;;5106995;28;20040;-84
2022/10/20 12:20:30;;;;;;;12.55;6.10;;;13.30;99.90;;;;;;5088789;28;20482;-83
2022/10/20 12:22:58;;;;;;;17.02;6.40;;;13.30;99.90;;;;;;5088944;28;20093;-83
2022/10/20 12:25:33;;;;;;;9.70;6.13;;;13.40;99.90;;;;;;5088100;28;20967;-86
2022/10/20 12:28:23;;;;;;;9.35;5.88;;;13.30;99.90;;;;;;5089516;28;20035;-87
2022/10/20 12:30:55;;;;;;;7.05;6.28;;;13.30;99.90;;;;;;5088264;28;20039;-87
2022/10/20 12:33:58;;;;;;;11.10;6.35;;;13.20;99.90;;;;;;5089376;28;20047;-87
2022/10/20 12:36:27;;;;;;;11.80;6.30;;;13.20;99.90;;;;;;5090125;28;20047;-86
2022/10/20 12:39:05;;;;;;;9.98;6.40;;;13.20;99.90;;;;;;5071870;28;20078;-86
2022/10/20 12:41:34;;;;;;;7.75;6.25;;;13.20;99.90;;;;;;5089426;28;20402;-87
2022/10/20 12:44:14;;;;;;;11.27;6.32;;;13.10;99.90;;;;;;5072746;28;20051;-88
2022/10/20 12:46:43;;;;;;;12.65;6.97;;;13.10;99.90;;;;;;5088205;28;20063;-86
2022/10/20 12:49:19;;;;;;;7.82;6.25;;;13.20;99.90;;;;;;5072757;28;20044;-86
2022/10/20 12:51:51;;;;;;;10.70;6.85;;;13.00;99.90;;;;;;5056764;28;20394;-87
2022/10/20 12:54:21;;;;;;;16.42;7.13;;;13.00;99.90;;;;;;5074248;28;20391;-88
2022/10/20 12:56:48;;;;;;;12.15;6.43;;;12.90;99.90;;;;;;5092042;28;20479;-87
2022/10/20 12:59:34;;;;;;;11.75;6.88;;;14.00;99.90;;;;;;5091752;28;20047;-87
2022/10/20 13:02:09;;;;;;;11.75;7.45;;;12.80;99.90;;;;;;5094182;28;20047;-87
2022/10/20 13:04:56;;;;;;;10.85;6.55;;;13.00;99.90;;;;;;5074004;28;20046;-88
2022/10/20 13:07:47;;;;;;;11.73;7.85;;;12.80;99.90;;;;;;5089452;28;20044;-88